sensor_id;sensor_type;location;lat;lon;timestamp;P1;durP1;ratioP1;P2;durP2;ratioP2
14015;SDS011;7083;48.854;9.158;2023-09-19T00:01:43;380.73;;;356.60;;
14015;SDS011;7083;48.854;9.158;2023-09-19T00:04:12;401.37;;;376.27;;
14015;SDS011;7083;48.854;9.158;2023-09-19T00:06:40;390.63;;;366.43;;
14015;SDS011;7083;48.854;9.158;2023-09-19T00:09:07;434.30;;;407.77;;
14015;SDS011;7083;48.854;9.158;2023-09-19T00:11:35;449.67;;;422.87;;
14015;SDS011;7083;48.854;9.158;2023-09-19T00:14:03;614.23;;;575.47;;
14015;SDS011;7083;48.854;9.158;2023-09-19T00:16:33;332.97;;;318.03;;
14015;SDS011;7083;48.854;9.158;2023-09-19T00:19:01;338.70;;;323.53;;
14015;SDS011;7083;48.854;9.158;2023-09-19T00:21:34;488.97;;;459.53;;
14015;SDS011;7083;48.854;9.158;2023-09-19T00:24:02;592.70;;;555.73;;
14015;SDS011;7083;48.854;9.158;2023-09-19T00:26:31;529.90;;;496.93;;
14015;SDS011;7083;48.854;9.158;2023-09-19T00:28:59;543.27;;;508.63;;
14015;SDS011;7083;48.854;9.158;2023-09-19T00:31:30;522.90;;;489.67;;
14015;SDS011;7083;48.854;9.158;2023-09-19T00:33:57;510.93;;;479.17;;
14015;SDS011;7083;48.854;9.158;2023-09-19T00:36:29;523.60;;;490.97;;
14015;SDS011;7083;48.854;9.158;2023-09-19T00:38:57;590.50;;;554.20;;
14015;SDS011;7083;48.854;9.158;2023-09-19T00:41:24;614.27;;;575.53;;
14015;SDS011;7083;48.854;9.158;2023-09-19T00:43:55;598.07;;;560.30;;
14015;SDS011;7083;48.854;9.158;2023-09-19T00:46:22;605.77;;;567.73;;
14015;SDS011;7083;48.854;9.158;2023-09-19T00:48:50;611.20;;;572.67;;
14015;SDS011;7083;48.854;9.158;2023-09-19T00:51:17;628.67;;;587.17;;
14015;SDS011;7083;48.854;9.158;2023-09-19T00:53:47;606.63;;;566.87;;
14015;SDS011;7083;48.854;9.158;2023-09-19T00:56:15;614.67;;;574.07;;
14015;SDS011;7083;48.854;9.158;2023-09-19T00:58:43;616.17;;;575.40;;
14015;SDS011;7083;48.854;9.158;2023-09-19T01:01:11;594.57;;;556.10;;
14015;SDS011;7083;48.854;9.158;2023-09-19T01:03:39;606.53;;;566.57;;
14015;SDS011;7083;48.854;9.158;2023-09-19T01:06:06;614.70;;;574.83;;
14015;SDS011;7083;48.854;9.158;2023-09-19T01:08:33;620.23;;;579.73;;
14015;SDS011;7083;48.854;9.158;2023-09-19T01:11:03;619.23;;;579.03;;
14015;SDS011;7083;48.854;9.158;2023-09-19T01:13:38;615.53;;;575.43;;
14015;SDS011;7083;48.854;9.158;2023-09-19T01:16:11;624.83;;;583.80;;
14015;SDS011;7083;48.854;9.158;2023-09-19T01:18:43;616.90;;;576.30;;
14015;SDS011;7083;48.854;9.158;2023-09-19T01:21:15;588.00;;;551.43;;
14015;SDS011;7083;48.854;9.158;2023-09-19T01:23:54;593.13;;;556.27;;
14015;SDS011;7083;48.854;9.158;2023-09-19T01:26:30;592.03;;;555.23;;
14015;SDS011;7083;48.854;9.158;2023-09-19T01:29:06;588.03;;;551.03;;
14015;SDS011;7083;48.854;9.158;2023-09-19T01:31:40;581.97;;;545.80;;
14015;SDS011;7083;48.854;9.158;2023-09-19T01:34:09;590.67;;;554.00;;
14015;SDS011;7083;48.854;9.158;2023-09-19T01:36:37;606.67;;;568.70;;
14015;SDS011;7083;48.854;9.158;2023-09-19T01:39:04;596.43;;;559.30;;
14015;SDS011;7083;48.854;9.158;2023-09-19T01:41:51;601.93;;;564.53;;
14015;SDS011;7083;48.854;9.158;2023-09-19T01:44:24;581.60;;;545.83;;
14015;SDS011;7083;48.854;9.158;2023-09-19T01:46:53;587.67;;;551.07;;
14015;SDS011;7083;48.854;9.158;2023-09-19T01:49:26;588.50;;;552.07;;
14015;SDS011;7083;48.854;9.158;2023-09-19T01:51:56;596.40;;;559.90;;
14015;SDS011;7083;48.854;9.158;2023-09-19T01:54:30;574.83;;;540.20;;
14015;SDS011;7083;48.854;9.158;2023-09-19T01:56:59;585.90;;;550.37;;
14015;SDS011;7083;48.854;9.158;2023-09-19T01:59:31;583.40;;;547.73;;
14015;SDS011;7083;48.854;9.158;2023-09-19T02:02:02;571.27;;;537.03;;
14015;SDS011;7083;48.854;9.158;2023-09-19T02:04:30;659.33;;;615.57;;
14015;SDS011;7083;48.854;9.158;2023-09-19T02:06:59;605.40;;;566.30;;
14015;SDS011;7083;48.854;9.158;2023-09-19T02:09:27;587.83;;;550.53;;
14015;SDS011;7083;48.854;9.158;2023-09-19T02:11:54;560.13;;;525.47;;
14015;SDS011;7083;48.854;9.158;2023-09-19T02:14:21;545.90;;;512.50;;
14015;SDS011;7083;48.854;9.158;2023-09-19T02:16:49;549.17;;;515.30;;
14015;SDS011;7083;48.854;9.158;2023-09-19T02:19:17;529.23;;;496.93;;
14015;SDS011;7083;48.854;9.158;2023-09-19T02:21:46;498.03;;;468.97;;
14015;SDS011;7083;48.854;9.158;2023-09-19T02:24:13;469.30;;;442.20;;
14015;SDS011;7083;48.854;9.158;2023-09-19T02:26:41;449.33;;;423.60;;
14015;SDS011;7083;48.854;9.158;2023-09-19T02:29:08;523.80;;;494.37;;
14015;SDS011;7083;48.854;9.158;2023-09-19T02:31:37;510.93;;;481.67;;
14015;SDS011;7083;48.854;9.158;2023-09-19T02:34:05;462.33;;;435.73;;
14015;SDS011;7083;48.854;9.158;2023-09-19T02:36:35;357.53;;;338.60;;
14015;SDS011;7083;48.854;9.158;2023-09-19T02:39:02;345.53;;;327.13;;
14015;SDS011;7083;48.854;9.158;2023-09-19T02:41:31;320.60;;;303.57;;
14015;SDS011;7083;48.854;9.158;2023-09-19T02:43:58;319.13;;;302.27;;
14015;SDS011;7083;48.854;9.158;2023-09-19T02:46:26;499.83;;;471.77;;
14015;SDS011;7083;48.854;9.158;2023-09-19T02:48:53;496.73;;;468.57;;
14015;SDS011;7083;48.854;9.158;2023-09-19T02:51:20;431.10;;;406.73;;
14015;SDS011;7083;48.854;9.158;2023-09-19T02:53:49;378.27;;;357.50;;
14015;SDS011;7083;48.854;9.158;2023-09-19T02:56:17;373.60;;;353.07;;
14015;SDS011;7083;48.854;9.158;2023-09-19T02:58:44;393.57;;;371.83;;
14015;SDS011;7083;48.854;9.158;2023-09-19T03:01:13;466.27;;;441.17;;
14015;SDS011;7083;48.854;9.158;2023-09-19T03:03:40;102.77;;;98.30;;
14015;SDS011;7083;48.854;9.158;2023-09-19T03:06:07;548.80;;;513.97;;
14015;SDS011;7083;48.854;9.158;2023-09-19T03:08:34;553.40;;;518.37;;
14015;SDS011;7083;48.854;9.158;2023-09-19T03:11:05;557.13;;;522.13;;
14015;SDS011;7083;48.854;9.158;2023-09-19T03:13:36;557.83;;;522.83;;
14015;SDS011;7083;48.854;9.158;2023-09-19T03:16:03;602.70;;;564.03;;
14015;SDS011;7083;48.854;9.158;2023-09-19T03:18:31;619.50;;;579.47;;
14015;SDS011;7083;48.854;9.158;2023-09-19T03:20:58;639.80;;;598.03;;
14015;SDS011;7083;48.854;9.158;2023-09-19T03:23:26;640.53;;;598.27;;
14015;SDS011;7083;48.854;9.158;2023-09-19T03:25:53;551.30;;;518.40;;
14015;SDS011;7083;48.854;9.158;2023-09-19T03:28:22;547.07;;;514.47;;
14015;SDS011;7083;48.854;9.158;2023-09-19T03:30:57;550.03;;;517.60;;
14015;SDS011;7083;48.854;9.158;2023-09-19T03:33:25;546.90;;;514.60;;
14015;SDS011;7083;48.854;9.158;2023-09-19T03:35:52;548.67;;;516.00;;
14015;SDS011;7083;48.854;9.158;2023-09-19T03:38:19;540.83;;;508.80;;
14015;SDS011;7083;48.854;9.158;2023-09-19T03:40:46;546.60;;;514.20;;
14015;SDS011;7083;48.854;9.158;2023-09-19T03:43:13;696.87;;;650.50;;
14015;SDS011;7083;48.854;9.158;2023-09-19T03:45:42;683.67;;;638.17;;
14015;SDS011;7083;48.854;9.158;2023-09-19T03:48:09;638.17;;;596.13;;
14015;SDS011;7083;48.854;9.158;2023-09-19T03:50:37;610.10;;;570.00;;
14015;SDS011;7083;48.854;9.158;2023-09-19T03:53:05;588.60;;;550.23;;
14015;SDS011;7083;48.854;9.158;2023-09-19T03:55:35;579.33;;;541.47;;
14015;SDS011;7083;48.854;9.158;2023-09-19T03:58:03;600.03;;;559.57;;
14015;SDS011;7083;48.854;9.158;2023-09-19T04:00:30;607.93;;;566.73;;
14015;SDS011;7083;48.854;9.158;2023-09-19T04:03:00;238.90;;;225.90;;
14015;SDS011;7083;48.854;9.158;2023-09-19T04:05:31;222.57;;;210.80;;
14015;SDS011;7083;48.854;9.158;2023-09-19T04:07:58;198.07;;;187.10;;
14015;SDS011;7083;48.854;9.158;2023-09-19T04:10:25;535.87;;;503.80;;
14015;SDS011;7083;48.854;9.158;2023-09-19T04:12:53;463.83;;;437.43;;
14015;SDS011;7083;48.854;9.158;2023-09-19T04:15:20;415.20;;;392.77;;
14015;SDS011;7083;48.854;9.158;2023-09-19T04:17:48;444.93;;;419.50;;
14015;SDS011;7083;48.854;9.158;2023-09-19T04:20:17;411.57;;;388.53;;
14015;SDS011;7083;48.854;9.158;2023-09-19T04:22:44;432.67;;;407.57;;
14015;SDS011;7083;48.854;9.158;2023-09-19T04:25:12;156.83;;;148.03;;
14015;SDS011;7083;48.854;9.158;2023-09-19T04:27:39;159.63;;;150.80;;
14015;SDS011;7083;48.854;9.158;2023-09-19T04:30:07;359.27;;;336.90;;
14015;SDS011;7083;48.854;9.158;2023-09-19T04:32:37;323.50;;;303.93;;
14015;SDS011;7083;48.854;9.158;2023-09-19T04:35:05;290.43;;;272.70;;
14015;SDS011;7083;48.854;9.158;2023-09-19T04:37:35;336.07;;;315.07;;
14015;SDS011;7083;48.854;9.158;2023-09-19T04:40:03;227.40;;;216.53;;
14015;SDS011;7083;48.854;9.158;2023-09-19T04:42:31;251.93;;;239.67;;
14015;SDS011;7083;48.854;9.158;2023-09-19T04:44:58;394.40;;;370.17;;
14015;SDS011;7083;48.854;9.158;2023-09-19T04:47:25;308.00;;;290.57;;
14015;SDS011;7083;48.854;9.158;2023-09-19T04:49:52;285.13;;;269.37;;
14015;SDS011;7083;48.854;9.158;2023-09-19T04:52:19;287.70;;;272.03;;
14015;SDS011;7083;48.854;9.158;2023-09-19T04:54:48;407.93;;;386.97;;
14015;SDS011;7083;48.854;9.158;2023-09-19T04:57:15;412.00;;;390.53;;
14015;SDS011;7083;48.854;9.158;2023-09-19T04:59:42;377.00;;;355.00;;
14015;SDS011;7083;48.854;9.158;2023-09-19T05:02:09;301.20;;;284.87;;
14015;SDS011;7083;48.854;9.158;2023-09-19T05:04:37;267.00;;;253.13;;
14015;SDS011;7083;48.854;9.158;2023-09-19T05:07:04;281.97;;;267.27;;
14015;SDS011;7083;48.854;9.158;2023-09-19T05:09:31;405.17;;;383.23;;
14015;SDS011;7083;48.854;9.158;2023-09-19T05:12:01;423.33;;;400.23;;
14015;SDS011;7083;48.854;9.158;2023-09-19T05:14:28;223.00;;;211.67;;
14015;SDS011;7083;48.854;9.158;2023-09-19T05:16:55;254.97;;;242.00;;
14015;SDS011;7083;48.854;9.158;2023-09-19T05:19:22;255.27;;;241.48;;
14015;SDS011;7083;48.854;9.158;2023-09-19T05:21:49;279.20;;;264.10;;
14015;SDS011;7083;48.854;9.158;2023-09-19T05:24:16;570.67;;;532.37;;
14015;SDS011;7083;48.854;9.158;2023-09-19T05:26:43;582.40;;;543.23;;
14015;SDS011;7083;48.854;9.158;2023-09-19T05:29:12;233.57;;;221.47;;
14015;SDS011;7083;48.854;9.158;2023-09-19T05:31:39;234.27;;;221.87;;
14015;SDS011;7083;48.854;9.158;2023-09-19T05:34:07;243.47;;;230.60;;
14015;SDS011;7083;48.854;9.158;2023-09-19T05:36:34;229.33;;;217.43;;
14015;SDS011;7083;48.854;9.158;2023-09-19T05:39:02;238.63;;;225.53;;
14015;SDS011;7083;48.854;9.158;2023-09-19T05:41:29;213.27;;;201.90;;
14015;SDS011;7083;48.854;9.158;2023-09-19T05:43:56;212.70;;;201.40;;
14015;SDS011;7083;48.854;9.158;2023-09-19T05:46:25;223.37;;;211.07;;
14015;SDS011;7083;48.854;9.158;2023-09-19T05:48:54;223.47;;;211.33;;
14015;SDS011;7083;48.854;9.158;2023-09-19T05:51:22;200.80;;;190.40;;
14015;SDS011;7083;48.854;9.158;2023-09-19T05:53:50;288.27;;;273.47;;
14015;SDS011;7083;48.854;9.158;2023-09-19T05:56:17;297.73;;;282.13;;
14015;SDS011;7083;48.854;9.158;2023-09-19T05:58:44;363.27;;;343.83;;
14015;SDS011;7083;48.854;9.158;2023-09-19T06:01:11;424.63;;;397.23;;
14015;SDS011;7083;48.854;9.158;2023-09-19T06:03:40;387.97;;;363.70;;
14015;SDS011;7083;48.854;9.158;2023-09-19T06:06:07;334.30;;;314.17;;
14015;SDS011;7083;48.854;9.158;2023-09-19T06:08:34;320.07;;;301.37;;
14015;SDS011;7083;48.854;9.158;2023-09-19T06:11:02;286.80;;;270.53;;
14015;SDS011;7083;48.854;9.158;2023-09-19T06:13:30;267.23;;;252.33;;
14015;SDS011;7083;48.854;9.158;2023-09-19T06:15:58;282.50;;;268.50;;
14015;SDS011;7083;48.854;9.158;2023-09-19T06:18:28;299.83;;;284.80;;
14015;SDS011;7083;48.854;9.158;2023-09-19T06:20:59;290.93;;;276.30;;
14015;SDS011;7083;48.854;9.158;2023-09-19T06:23:32;290.47;;;275.63;;
14015;SDS011;7083;48.854;9.158;2023-09-19T06:25:59;164.10;;;156.23;;
14015;SDS011;7083;48.854;9.158;2023-09-19T06:28:26;169.83;;;161.23;;
14015;SDS011;7083;48.854;9.158;2023-09-19T06:30:53;171.73;;;162.47;;
14015;SDS011;7083;48.854;9.158;2023-09-19T06:33:20;177.37;;;168.03;;
14015;SDS011;7083;48.854;9.158;2023-09-19T06:35:47;168.50;;;159.93;;
14015;SDS011;7083;48.854;9.158;2023-09-19T06:38:19;383.53;;;361.83;;
14015;SDS011;7083;48.854;9.158;2023-09-19T06:40:46;368.23;;;347.43;;
14015;SDS011;7083;48.854;9.158;2023-09-19T06:43:13;377.07;;;355.47;;
14015;SDS011;7083;48.854;9.158;2023-09-19T06:45:40;107.90;;;102.30;;
14015;SDS011;7083;48.854;9.158;2023-09-19T06:48:07;106.03;;;100.67;;
14015;SDS011;7083;48.854;9.158;2023-09-19T06:50:35;124.50;;;117.90;;
14015;SDS011;7083;48.854;9.158;2023-09-19T06:53:03;130.73;;;124.30;;
14015;SDS011;7083;48.854;9.158;2023-09-19T06:55:32;133.33;;;126.80;;
14015;SDS011;7083;48.854;9.158;2023-09-19T06:57:59;527.00;;;492.73;;
14015;SDS011;7083;48.854;9.158;2023-09-19T07:00:26;528.30;;;493.93;;
14015;SDS011;7083;48.854;9.158;2023-09-19T07:02:56;549.63;;;513.70;;
14015;SDS011;7083;48.854;9.158;2023-09-19T07:05:25;149.27;;;142.43;;
14015;SDS011;7083;48.854;9.158;2023-09-19T07:07:52;150.13;;;143.37;;
14015;SDS011;7083;48.854;9.158;2023-09-19T07:10:20;160.77;;;153.57;;
14015;SDS011;7083;48.854;9.158;2023-09-19T07:12:54;415.13;;;390.23;;
14015;SDS011;7083;48.854;9.158;2023-09-19T07:15:21;504.10;;;471.40;;
14015;SDS011;7083;48.854;9.158;2023-09-19T07:17:50;547.13;;;510.97;;
14015;SDS011;7083;48.854;9.158;2023-09-19T07:20:18;202.20;;;193.17;;
14015;SDS011;7083;48.854;9.158;2023-09-19T07:22:45;178.80;;;170.73;;
14015;SDS011;7083;48.854;9.158;2023-09-19T07:25:13;226.80;;;216.53;;
14015;SDS011;7083;48.854;9.158;2023-09-19T07:27:40;318.80;;;303.27;;
14015;SDS011;7083;48.854;9.158;2023-09-19T07:30:09;457.60;;;431.10;;
14015;SDS011;7083;48.854;9.158;2023-09-19T07:32:36;511.80;;;480.30;;
14015;SDS011;7083;48.854;9.158;2023-09-19T07:35:04;503.00;;;473.10;;
14015;SDS011;7083;48.854;9.158;2023-09-19T07:37:31;406.73;;;385.67;;
14015;SDS011;7083;48.854;9.158;2023-09-19T07:39:59;364.40;;;346.57;;
14015;SDS011;7083;48.854;9.158;2023-09-19T07:42:26;367.90;;;349.90;;
14015;SDS011;7083;48.854;9.158;2023-09-19T07:44:53;701.37;;;651.03;;
14015;SDS011;7083;48.854;9.158;2023-09-19T07:47:22;358.23;;;340.87;;
14015;SDS011;7083;48.854;9.158;2023-09-19T07:49:49;391.00;;;371.50;;
14015;SDS011;7083;48.854;9.158;2023-09-19T07:52:16;396.80;;;376.70;;
14015;SDS011;7083;48.854;9.158;2023-09-19T07:54:44;363.30;;;345.43;;
14015;SDS011;7083;48.854;9.158;2023-09-19T07:57:12;366.87;;;348.50;;
14015;SDS011;7083;48.854;9.158;2023-09-19T07:59:40;385.30;;;366.27;;
14015;SDS011;7083;48.854;9.158;2023-09-19T08:02:07;353.33;;;336.23;;
14015;SDS011;7083;48.854;9.158;2023-09-19T08:07:09;728.07;;;675.20;;
14015;SDS011;7083;48.854;9.158;2023-09-19T08:09:36;705.40;;;654.60;;
14015;SDS011;7083;48.854;9.158;2023-09-19T08:12:03;695.15;;;645.40;;
14015;SDS011;7083;48.854;9.158;2023-09-19T08:14:32;718.97;;;666.50;;
14015;SDS011;7083;48.854;9.158;2023-09-19T08:16:59;349.10;;;332.23;;
14015;SDS011;7083;48.854;9.158;2023-09-19T08:19:26;293.57;;;279.43;;
14015;SDS011;7083;48.854;9.158;2023-09-19T08:21:56;309.40;;;294.20;;
14015;SDS011;7083;48.854;9.158;2023-09-19T08:24:25;317.03;;;301.53;;
14015;SDS011;7083;48.854;9.158;2023-09-19T08:26:53;292.83;;;278.50;;
14015;SDS011;7083;48.854;9.158;2023-09-19T08:29:20;269.07;;;255.80;;
14015;SDS011;7083;48.854;9.158;2023-09-19T08:31:52;288.80;;;274.13;;
14015;SDS011;7083;48.854;9.158;2023-09-19T08:34:19;611.83;;;571.80;;
14015;SDS011;7083;48.854;9.158;2023-09-19T08:36:47;569.47;;;535.23;;
14015;SDS011;7083;48.854;9.158;2023-09-19T08:39:14;293.57;;;278.90;;
14015;SDS011;7083;48.854;9.158;2023-09-19T08:41:43;567.43;;;533.80;;
14015;SDS011;7083;48.854;9.158;2023-09-19T08:44:10;301.23;;;287.13;;
14015;SDS011;7083;48.854;9.158;2023-09-19T08:46:37;627.37;;;587.57;;
14015;SDS011;7083;48.854;9.158;2023-09-19T08:49:08;204.03;;;194.67;;
14015;SDS011;7083;48.854;9.158;2023-09-19T08:51:40;216.83;;;207.23;;
14015;SDS011;7083;48.854;9.158;2023-09-19T08:54:09;249.53;;;238.47;;
14015;SDS011;7083;48.854;9.158;2023-09-19T08:56:39;274.10;;;261.63;;
14015;SDS011;7083;48.854;9.158;2023-09-19T08:59:09;621.60;;;584.23;;
14015;SDS011;7083;48.854;9.158;2023-09-19T09:01:36;631.80;;;593.13;;
14015;SDS011;7083;48.854;9.158;2023-09-19T09:04:07;331.93;;;316.13;;
14015;SDS011;7083;48.854;9.158;2023-09-19T09:06:38;322.00;;;306.87;;
14015;SDS011;7083;48.854;9.158;2023-09-19T09:09:05;327.53;;;312.37;;
14015;SDS011;7083;48.854;9.158;2023-09-19T09:11:34;329.23;;;314.17;;
14015;SDS011;7083;48.854;9.158;2023-09-19T09:14:02;332.73;;;317.37;;
14015;SDS011;7083;48.854;9.158;2023-09-19T09:16:30;631.20;;;590.73;;
14015;SDS011;7083;48.854;9.158;2023-09-19T09:18:57;400.47;;;380.83;;
14015;SDS011;7083;48.854;9.158;2023-09-19T09:21:25;397.30;;;377.73;;
14015;SDS011;7083;48.854;9.158;2023-09-19T09:23:52;428.70;;;406.97;;
14015;SDS011;7083;48.854;9.158;2023-09-19T09:26:23;586.47;;;546.50;;
14015;SDS011;7083;48.854;9.158;2023-09-19T09:29:07;536.13;;;499.23;;
14015;SDS011;7083;48.854;9.158;2023-09-19T09:31:36;510.47;;;475.30;;
14015;SDS011;7083;48.854;9.158;2023-09-19T09:34:03;520.53;;;484.67;;
14015;SDS011;7083;48.854;9.158;2023-09-19T09:36:33;545.47;;;505.92;;
14015;SDS011;7083;48.854;9.158;2023-09-19T09:39:01;767.83;;;712.93;;
14015;SDS011;7083;48.854;9.158;2023-09-19T09:41:41;760.47;;;706.53;;
14015;SDS011;7083;48.854;9.158;2023-09-19T09:44:12;648.13;;;605.70;;
14015;SDS011;7083;48.854;9.158;2023-09-19T09:46:43;641.23;;;599.83;;
14015;SDS011;7083;48.854;9.158;2023-09-19T09:49:43;526.93;;;490.73;;
14015;SDS011;7083;48.854;9.158;2023-09-19T09:52:19;477.60;;;445.97;;
14015;SDS011;7083;48.854;9.158;2023-09-19T09:54:58;643.30;;;600.83;;
14015;SDS011;7083;48.854;9.158;2023-09-19T09:57:26;523.77;;;488.87;;
14015;SDS011;7083;48.854;9.158;2023-09-19T09:59:55;513.47;;;479.57;;
14015;SDS011;7083;48.854;9.158;2023-09-19T10:02:26;723.27;;;673.97;;
14015;SDS011;7083;48.854;9.158;2023-09-19T10:04:58;727.23;;;677.60;;
14015;SDS011;7083;48.854;9.158;2023-09-19T10:07:34;644.93;;;604.70;;
14015;SDS011;7083;48.854;9.158;2023-09-19T10:10:04;667.40;;;624.73;;
14015;SDS011;7083;48.854;9.158;2023-09-19T10:12:38;674.10;;;629.70;;
14015;SDS011;7083;48.854;9.158;2023-09-19T10:15:08;663.17;;;617.30;;
14015;SDS011;7083;48.854;9.158;2023-09-19T10:17:41;677.97;;;630.93;;
14015;SDS011;7083;48.854;9.158;2023-09-19T10:20:10;644.00;;;603.67;;
14015;SDS011;7083;48.854;9.158;2023-09-19T10:22:49;624.20;;;586.03;;
14015;SDS011;7083;48.854;9.158;2023-09-19T10:25:23;711.20;;;663.93;;
14015;SDS011;7083;48.854;9.158;2023-09-19T10:27:51;718.03;;;669.50;;
14015;SDS011;7083;48.854;9.158;2023-09-19T10:30:18;626.33;;;588.80;;
14015;SDS011;7083;48.854;9.158;2023-09-19T10:32:48;668.20;;;621.63;;
14015;SDS011;7083;48.854;9.158;2023-09-19T10:35:20;630.50;;;593.00;;
14015;SDS011;7083;48.854;9.158;2023-09-19T10:37:49;629.20;;;591.40;;
14015;SDS011;7083;48.854;9.158;2023-09-19T10:40:17;648.00;;;608.43;;
14015;SDS011;7083;48.854;9.158;2023-09-19T10:42:45;597.10;;;556.43;;
14015;SDS011;7083;48.854;9.158;2023-09-19T10:45:12;606.80;;;565.13;;
14015;SDS011;7083;48.854;9.158;2023-09-19T10:47:40;645.00;;;605.93;;
14015;SDS011;7083;48.854;9.158;2023-09-19T10:50:09;642.57;;;603.30;;
14015;SDS011;7083;48.854;9.158;2023-09-19T10:52:46;652.87;;;612.07;;
14015;SDS011;7083;48.854;9.158;2023-09-19T10:55:15;678.70;;;635.53;;
14015;SDS011;7083;48.854;9.158;2023-09-19T10:57:44;513.40;;;479.23;;
14015;SDS011;7083;48.854;9.158;2023-09-19T11:00:13;471.20;;;440.97;;
14015;SDS011;7083;48.854;9.158;2023-09-19T11:05:35;490.93;;;458.67;;
14015;SDS011;7083;48.854;9.158;2023-09-19T11:08:05;464.97;;;435.20;;
14015;SDS011;7083;48.854;9.158;2023-09-19T11:10:45;455.20;;;426.17;;
14015;SDS011;7083;48.854;9.158;2023-09-19T11:16:02;360.90;;;338.73;;
14015;SDS011;7083;48.854;9.158;2023-09-19T11:21:39;706.20;;;657.63;;
14015;SDS011;7083;48.854;9.158;2023-09-19T11:26:57;620.30;;;580.63;;
14015;SDS011;7083;48.854;9.158;2023-09-19T11:29:35;608.00;;;569.53;;
14015;SDS011;7083;48.854;9.158;2023-09-19T11:32:02;711.50;;;663.90;;
14015;SDS011;7083;48.854;9.158;2023-09-19T11:34:46;711.23;;;663.40;;
14015;SDS011;7083;48.854;9.158;2023-09-19T11:40:08;724.03;;;675.20;;
14015;SDS011;7083;48.854;9.158;2023-09-19T11:42:41;724.27;;;674.23;;
14015;SDS011;7083;48.854;9.158;2023-09-19T11:45:18;725.60;;;675.83;;
14015;SDS011;7083;48.854;9.158;2023-09-19T11:48:10;718.70;;;669.70;;
14015;SDS011;7083;48.854;9.158;2023-09-19T11:50:38;629.83;;;589.20;;
14015;SDS011;7083;48.854;9.158;2023-09-19T11:53:09;699.33;;;652.57;;
14015;SDS011;7083;48.854;9.158;2023-09-19T11:55:37;722.33;;;673.53;;
14015;SDS011;7083;48.854;9.158;2023-09-19T11:58:06;696.83;;;649.30;;
14015;SDS011;7083;48.854;9.158;2023-09-19T12:00:34;626.37;;;586.47;;
14015;SDS011;7083;48.854;9.158;2023-09-19T12:03:02;633.43;;;592.93;;
14015;SDS011;7083;48.854;9.158;2023-09-19T12:05:31;617.60;;;578.37;;
14015;SDS011;7083;48.854;9.158;2023-09-19T12:07:59;634.70;;;594.43;;
14015;SDS011;7083;48.854;9.158;2023-09-19T12:10:28;631.03;;;590.73;;
14015;SDS011;7083;48.854;9.158;2023-09-19T12:12:56;642.40;;;601.23;;
14015;SDS011;7083;48.854;9.158;2023-09-19T12:15:24;634.20;;;593.90;;
14015;SDS011;7083;48.854;9.158;2023-09-19T12:17:53;638.30;;;597.23;;
14015;SDS011;7083;48.854;9.158;2023-09-19T12:20:21;701.53;;;654.83;;
14015;SDS011;7083;48.854;9.158;2023-09-19T12:22:48;704.17;;;657.40;;
14015;SDS011;7083;48.854;9.158;2023-09-19T12:25:15;692.47;;;646.80;;
14015;SDS011;7083;48.854;9.158;2023-09-19T12:27:43;617.57;;;579.03;;
14015;SDS011;7083;48.854;9.158;2023-09-19T12:30:13;604.23;;;566.83;;
14015;SDS011;7083;48.854;9.158;2023-09-19T12:32:42;613.83;;;575.40;;
14015;SDS011;7083;48.854;9.158;2023-09-19T12:35:09;614.10;;;575.90;;
14015;SDS011;7083;48.854;9.158;2023-09-19T12:37:36;610.57;;;572.50;;
14015;SDS011;7083;48.854;9.158;2023-09-19T12:40:04;608.47;;;570.93;;
14015;SDS011;7083;48.854;9.158;2023-09-19T12:42:41;615.60;;;577.10;;
14015;SDS011;7083;48.854;9.158;2023-09-19T12:45:09;615.40;;;577.50;;
14015;SDS011;7083;48.854;9.158;2023-09-19T12:47:40;603.77;;;566.47;;
14015;SDS011;7083;48.854;9.158;2023-09-19T12:50:08;610.73;;;572.90;;
14015;SDS011;7083;48.854;9.158;2023-09-19T12:52:40;616.97;;;578.77;;
14015;SDS011;7083;48.854;9.158;2023-09-19T12:55:07;606.33;;;568.83;;
14015;SDS011;7083;48.854;9.158;2023-09-19T12:57:36;611.07;;;573.30;;
14015;SDS011;7083;48.854;9.158;2023-09-19T13:00:04;611.20;;;573.03;;
14015;SDS011;7083;48.854;9.158;2023-09-19T13:02:35;606.00;;;568.53;;
14015;SDS011;7083;48.854;9.158;2023-09-19T13:05:04;614.40;;;576.33;;
14015;SDS011;7083;48.854;9.158;2023-09-19T13:07:41;602.17;;;564.73;;
14015;SDS011;7083;48.854;9.158;2023-09-19T13:10:10;598.93;;;561.87;;
14015;SDS011;7083;48.854;9.158;2023-09-19T13:12:41;606.93;;;569.60;;
14015;SDS011;7083;48.854;9.158;2023-09-19T13:15:09;605.13;;;567.47;;
14015;SDS011;7083;48.854;9.158;2023-09-19T13:17:44;598.23;;;561.30;;
14015;SDS011;7083;48.854;9.158;2023-09-19T13:20:21;606.60;;;568.90;;
14015;SDS011;7083;48.854;9.158;2023-09-19T13:22:54;621.10;;;582.47;;
14015;SDS011;7083;48.854;9.158;2023-09-19T13:25:23;617.20;;;578.70;;
14015;SDS011;7083;48.854;9.158;2023-09-19T13:27:53;608.03;;;570.23;;
14015;SDS011;7083;48.854;9.158;2023-09-19T13:30:21;618.30;;;579.30;;
14015;SDS011;7083;48.854;9.158;2023-09-19T13:32:50;623.27;;;583.27;;
14015;SDS011;7083;48.854;9.158;2023-09-19T13:35:18;579.43;;;542.47;;
14015;SDS011;7083;48.854;9.158;2023-09-19T13:37:46;567.73;;;530.80;;
14015;SDS011;7083;48.854;9.158;2023-09-19T13:40:16;521.50;;;488.30;;
14015;SDS011;7083;48.854;9.158;2023-09-19T13:42:44;490.07;;;458.90;;
14015;SDS011;7083;48.854;9.158;2023-09-19T13:45:11;420.27;;;394.03;;
14015;SDS011;7083;48.854;9.158;2023-09-19T13:47:40;369.17;;;346.90;;
14015;SDS011;7083;48.854;9.158;2023-09-19T13:50:08;358.03;;;336.93;;
14015;SDS011;7083;48.854;9.158;2023-09-19T13:52:35;274.70;;;259.23;;
14015;SDS011;7083;48.854;9.158;2023-09-19T13:55:05;197.27;;;186.40;;
14015;SDS011;7083;48.854;9.158;2023-09-19T13:57:32;208.18;;;196.65;;
14015;SDS011;7083;48.854;9.158;2023-09-19T13:59:59;195.40;;;184.63;;
14015;SDS011;7083;48.854;9.158;2023-09-19T14:02:26;201.85;;;190.50;;
14015;SDS011;7083;48.854;9.158;2023-09-19T14:04:53;178.88;;;168.80;;
14015;SDS011;7083;48.854;9.158;2023-09-19T14:07:21;151.45;;;143.38;;
14015;SDS011;7083;48.854;9.158;2023-09-19T14:09:48;128.20;;;121.57;;
14015;SDS011;7083;48.854;9.158;2023-09-19T14:12:16;133.15;;;126.07;;
14015;SDS011;7083;48.854;9.158;2023-09-19T14:14:43;174.57;;;164.93;;
14015;SDS011;7083;48.854;9.158;2023-09-19T14:17:10;174.48;;;164.90;;
14015;SDS011;7083;48.854;9.158;2023-09-19T14:19:40;148.50;;;140.57;;
14015;SDS011;7083;48.854;9.158;2023-09-19T14:22:08;138.85;;;131.57;;
14015;SDS011;7083;48.854;9.158;2023-09-19T14:24:35;638.75;;;597.05;;
14015;SDS011;7083;48.854;9.158;2023-09-19T14:27:02;115.43;;;109.65;;
14015;SDS011;7083;48.854;9.158;2023-09-19T14:29:32;624.88;;;584.47;;
14015;SDS011;7083;48.854;9.158;2023-09-19T14:31:59;605.45;;;566.85;;
14015;SDS011;7083;48.854;9.158;2023-09-19T14:34:26;582.75;;;546.83;;
14015;SDS011;7083;48.854;9.158;2023-09-19T14:36:53;592.63;;;555.53;;